Time;durP1;ratioP1;P1;durP2;ratioP2;P2;SDS_P1;SDS_P2;PMS_P1;PMS_P2;Temp;Humidity;BMP_temperature;BMP_pressure;BME280_temperature;BME280_humidity;BME280_pressure;Samples;Min_cycle;Max_cycle;Signal;HPM_P1;HPM_P2
2023/01/23 00:00:10;;;;;;;18.80;10.85;;;;;;;2.00;51.43;102948.09;5049658;28;20535;-66
2023/01/23 00:02:38;;;;;;;16.17;10.20;;;;;;;1.99;51.47;102951.72;5062769;28;20066;-67
2023/01/23 00:05:07;;;;;;;18.27;11.25;;;;;;;2.00;51.44;102961.59;5067249;28;20051;-66
2023/01/23 00:07:35;;;;;;;17.45;10.40;;;;;;;1.98;51.42;102948.13;5057565;28;20501;-66
2023/01/23 00:10:03;;;;;;;16.85;10.40;;;;;;;1.98;51.43;102952.63;5064867;28;20047;-66
2023/01/23 00:12:31;;;;;;;18.50;11.18;;;;;;;1.94;51.46;102959.88;5067280;28;20044;-66
2023/01/23 00:14:59;;;;;;;16.63;10.10;;;;;;;1.96;51.34;102959.84;5061946;28;20299;-66
2023/01/23 00:17:28;;;;;;;16.17;10.40;;;;;;;1.97;51.34;102962.53;5066396;28;20406;-66
2023/01/23 00:19:57;;;;;;;15.93;9.23;;;;;;;1.97;51.20;102956.25;5064336;28;20528;-66
2023/01/23 00:22:25;;;;;;;17.40;9.57;;;;;;;1.98;51.36;102955.31;5067908;28;20049;-66
2023/01/23 00:24:52;;;;;;;14.35;9.05;;;;;;;1.99;51.46;102957.13;5060225;28;20138;-66
2023/01/23 00:27:20;;;;;;;13.93;8.52;;;;;;;2.00;51.53;102957.06;5062221;28;20040;-66
2023/01/23 00:29:48;;;;;;;14.63;8.90;;;;;;;2.00;51.39;102957.06;5067466;28;20056;-66
2023/01/23 00:32:16;;;;;;;14.20;9.65;;;;;;;1.99;51.54;102960.72;5061129;28;20041;-67
2023/01/23 00:34:46;;;;;;;14.52;9.05;;;;;;;2.00;51.29;102954.34;5066410;28;20105;-66
2023/01/23 00:37:15;;;;;;;16.17;9.13;;;;;;;2.01;51.36;102955.25;5066006;28;20048;-66
2023/01/23 00:39:44;;;;;;;17.50;10.45;;;;;;;1.99;51.38;102958.00;5065534;28;20130;-66
2023/01/23 00:42:12;;;;;;;15.85;10.02;;;;;;;2.00;51.34;102962.47;5067504;28;20044;-66
2023/01/23 00:44:40;;;;;;;17.33;10.27;;;;;;;1.98;51.30;102963.44;5066894;28;20049;-66
2023/01/23 00:47:08;;;;;;;15.73;9.38;;;;;;;1.99;51.30;102960.72;5067112;28;20056;-66
2023/01/23 00:49:36;;;;;;;16.52;10.38;;;;;;;1.98;51.39;102961.63;5048825;28;20410;-66
2023/01/23 00:52:06;;;;;;;17.63;10.48;;;;;;;1.98;51.28;102950.81;5044809;28;20413;-66
2023/01/23 00:54:34;;;;;;;15.27;9.50;;;;;;;1.99;51.27;102954.41;5066255;28;20386;-66
2023/01/23 00:57:02;;;;;;;16.65;10.32;;;;;;;1.96;51.45;102952.66;5062629;28;20525;-66
2023/01/23 00:59:30;;;;;;;17.08;10.48;;;;;;;1.98;51.23;102955.31;5060636;28;20393;-66
2023/01/23 01:01:57;;;;;;;18.67;10.73;;;;;;;1.96;51.41;102954.47;5046832;28;20041;-66
2023/01/23 01:04:25;;;;;;;15.82;10.00;;;;;;;1.95;51.43;102955.38;5040675;28;20127;-66
2023/01/23 01:06:54;;;;;;;17.75;10.15;;;;;;;1.92;51.40;102969.81;5063609;28;20044;-66
2023/01/23 01:09:24;;;;;;;17.13;10.95;;;;;;;1.90;51.52;102982.47;5064723;28;20091;-66
2023/01/23 01:11:52;;;;;;;18.40;11.23;;;;;;;1.90;51.45;102971.66;5065536;28;20136;-66
2023/01/23 01:14:20;;;;;;;19.33;12.02;;;;;;;1.84;51.63;102978.03;5047203;28;20060;-66
2023/01/23 01:16:48;;;;;;;19.30;11.75;;;;;;;1.85;51.65;102977.13;5046534;28;20044;-66
2023/01/23 01:19:17;;;;;;;18.55;10.82;;;;;;;1.85;51.67;102981.63;5058823;28;20045;-66
2023/01/23 01:21:45;;;;;;;16.60;10.75;;;;;;;1.85;51.55;102976.25;5059787;28;20040;-67
2023/01/23 01:24:13;;;;;;;17.42;11.30;;;;;;;1.83;51.73;102980.81;5030533;28;20510;-66
2023/01/23 01:26:42;;;;;;;18.88;10.60;;;;;;;1.83;51.82;102980.81;5043485;28;20302;-66
2023/01/23 01:29:10;;;;;;;17.88;11.45;;;;;;;1.79;51.82;102968.25;5066701;28;20068;-66
2023/01/23 01:31:37;;;;;;;18.30;11.50;;;;;;;1.81;51.69;102963.72;5043785;28;20066;-66
2023/01/23 01:34:05;;;;;;;16.25;10.38;;;;;;;1.84;51.54;102971.75;5046980;28;20045;-66
2023/01/23 01:36:33;;;;;;;17.33;10.30;;;;;;;1.83;51.74;102976.28;5066662;28;20053;-66
2023/01/23 01:39:01;;;;;;;18.60;11.50;;;;;;;1.81;51.88;102990.72;5053068;28;20561;-66
2023/01/23 01:41:29;;;;;;;15.73;9.95;;;;;;;1.87;51.64;102987.91;5063489;28;20041;-66
2023/01/23 01:43:59;;;;;;;16.92;10.48;;;;;;;1.88;51.64;102987.91;5064392;28;20055;-66
2023/01/23 01:46:28;;;;;;;19.27;11.10;;;;;;;1.87;51.68;102982.50;5045577;28;20044;-66
2023/01/23 01:49:08;;;;;;;18.13;10.48;;;;;;;1.87;51.72;102987.91;5045448;28;20062;-66
2023/01/23 01:51:41;;;;;;;15.88;10.25;;;;;;;1.87;51.67;102985.22;5043970;28;20048;-66
2023/01/23 01:54:16;;;;;;;16.40;9.80;;;;;;;1.91;51.49;102996.88;5066077;28;20063;-67
2023/01/23 01:56:48;;;;;;;16.23;9.07;;;;;;;1.92;51.66;102994.09;5047699;28;20041;-66
2023/01/23 01:59:19;;;;;;;16.77;10.10;;;;;;;1.88;51.86;103000.50;5045062;28;20055;-67
2023/01/23 02:01:53;;;;;;;16.17;9.32;;;;;;;1.93;51.70;103003.09;5047516;28;20036;-66
2023/01/23 02:04:21;;;;;;;16.73;9.73;;;;;;;1.93;51.57;103008.50;5046755;28;20040;-67
2023/01/23 02:06:50;;;;;;;17.80;10.40;;;;;;;1.93;51.57;103012.09;5045976;28;20051;-66
2023/01/23 02:09:24;;;;;;;15.95;9.35;;;;;;;1.95;51.55;103012.06;5036922;28;20097;-67
2023/01/23 02:11:53;;;;;;;16.30;9.32;;;;;;;1.95;51.41;103010.28;5047239;28;20387;-67
2023/01/23 02:14:24;;;;;;;15.45;9.15;;;;;;;1.97;51.75;103012.94;5044956;28;20086;-66
2023/01/23 02:16:55;;;;;;;14.30;8.30;;;;;;;1.98;51.53;103012.03;5063520;28;20426;-67
2023/01/23 02:19:37;;;;;;;17.02;10.23;;;;;;;2.02;51.48;103016.44;5063061;28;20476;-67
2023/01/23 02:22:14;;;;;;;15.53;9.60;;;;;;;1.99;51.47;103017.41;5061987;28;20496;-67
2023/01/23 02:24:52;;;;;;;16.70;8.95;;;;;;;2.02;51.67;103011.94;5047553;28;20088;-67
2023/01/23 02:27:23;;;;;;;14.05;8.38;;;;;;;2.04;51.51;103015.50;5038386;28;20045;-67
2023/01/23 02:29:55;;;;;;;16.27;10.20;;;;;;;2.04;51.61;103020.91;5042915;28;20049;-67
2023/01/23 02:32:25;;;;;;;17.83;10.30;;;;;;;2.05;51.45;103014.59;5042888;28;20465;-66
2023/01/23 02:34:57;;;;;;;16.73;9.45;;;;;;;2.09;51.59;103010.00;5020868;28;20048;-67
2023/01/23 02:37:30;;;;;;;15.07;8.82;;;;;;;2.10;51.41;103007.28;5025103;28;20045;-67
2023/01/23 02:39:58;;;;;;;;;;;;;;;1.89;52.04;103015.78;5044237;28;20049;-67
2023/01/23 02:42:28;;;;;;;17.30;10.05;;;;;;;2.07;51.51;103003.78;5028032;28;20043;-67
2023/01/23 02:44:56;;;;;;;16.17;9.60;;;;;;;2.11;51.52;103000.09;5036391;28;20045;-66
2023/01/23 02:47:24;;;;;;;18.92;11.02;;;;;;;2.11;51.21;102998.28;5058792;28;20055;-66
2023/01/23 02:49:56;;;;;;;17.58;10.60;;;;;;;2.13;51.18;102987.44;5038175;28;20417;-67
2023/01/23 02:52:24;;;;;;;19.02;11.40;;;;;;;2.10;51.41;102984.78;5048193;28;20105;-67
2023/01/23 02:54:52;;;;;;;16.90;10.73;;;;;;;2.11;51.42;102984.78;5051713;28;20404;-67
2023/01/23 02:57:20;;;;;;;18.45;11.45;;;;;;;2.10;51.41;102982.97;5025095;28;20052;-67
2023/01/23 03:02:37;;;;;;;17.58;10.70;;;;;;;2.06;51.34;102980.38;5024618;28;20056;-67
2023/01/23 03:05:05;;;;;;;16.70;10.15;;;;;;;2.08;51.17;102970.44;5026158;28;20116;-66
2023/01/23 03:07:33;;;;;;;16.25;10.07;;;;;;;2.06;51.44;102978.56;5025610;28;20462;-67
2023/01/23 03:10:03;;;;;;;17.58;10.20;;;;;;;2.06;51.41;102967.78;5031139;28;20037;-67
2023/01/23 03:12:31;;;;;;;14.90;9.30;;;;;;;2.05;51.25;102968.69;5034767;28;20048;-67
2023/01/23 03:15:01;;;;;;;16.38;9.98;;;;;;;2.05;51.21;102965.97;5044344;28;20051;-65
2023/01/23 03:17:29;;;;;;;18.02;10.80;;;;;;;2.02;51.21;102966.03;5043183;28;20482;-67
2023/01/23 03:19:57;;;;;;;18.27;11.20;;;;;;;2.01;51.15;102966.94;5036634;28;20041;-66
2023/01/23 03:22:26;;;;;;;19.13;11.55;;;;;;;1.96;51.20;102979.66;5044585;28;20045;-67
2023/01/23 03:24:56;;;;;;;19.38;11.98;;;;;;;1.92;51.30;102982.44;5042286;28;20414;-67
2023/01/23 03:27:24;;;;;;;18.42;11.85;;;;;;;1.88;51.19;102985.19;5042032;28;20085;-66
2023/01/23 03:30:12;;;;;;;19.70;12.40;;;;;;;1.84;51.41;102980.75;5041801;28;20037;-66
2023/01/23 03:32:42;;;;;;;19.92;12.55;;;;;;;1.79;51.23;102987.16;5043674;28;20238;-66
2023/01/23 03:35:15;;;;;;;18.08;12.05;;;;;;;1.75;51.63;102996.25;5055363;28;20462;-66
2023/01/23 03:37:43;;;;;;;18.70;11.65;;;;;;;1.68;51.53;102999.94;5045529;28;20071;-66
2023/01/23 03:43:18;;;;;;;16.75;10.07;;;;;;;1.66;51.33;103017.97;5018165;28;20104;-65
2023/01/23 03:45:48;;;;;;;16.50;10.38;;;;;;;1.65;51.48;103016.19;5023005;28;20643;-66
2023/01/23 03:48:19;;;;;;;16.27;10.63;;;;;;;1.64;51.48;103027.91;5042706;28;20402;-67
2023/01/23 03:50:46;;;;;;;18.05;11.02;;;;;;;1.60;51.44;103021.66;5022313;28;20041;-66
2023/01/23 03:53:17;;;;;;;17.33;10.43;;;;;;;1.60;51.56;103026.16;5022340;28;20381;-67
2023/01/23 03:55:45;;;;;;;18.08;11.40;;;;;;;1.56;51.62;103025.31;5040752;28;20032;-67
2023/01/23 03:58:13;;;;;;;16.67;11.30;;;;;;;1.59;51.73;103027.09;5033948;28;20426;-66
2023/01/23 04:00:43;;;;;;;16.88;10.38;;;;;;;1.57;51.50;103020.81;5042044;28;20060;-66
2023/01/23 04:03:11;;;;;;;15.05;10.15;;;;;;;1.55;51.81;103022.66;5044452;28;20049;-65
2023/01/23 04:05:40;;;;;;;14.68;10.00;;;;;;;1.59;51.78;103021.69;5039898;28;20038;-67
2023/01/23 04:08:08;;;;;;;15.32;9.93;;;;;;;1.52;52.01;103018.19;5017661;28;20488;-65
2023/01/23 04:10:37;;;;;;;15.05;9.68;;;;;;;1.55;51.78;103028.03;5049214;28;20069;-65
2023/01/23 04:13:11;;;;;;;16.30;10.57;;;;;;;1.49;51.66;103021.84;5043459;28;20433;-66
2023/01/23 04:15:40;;;;;;;16.65;10.70;;;;;;;1.48;51.83;103022.75;5024304;28;20079;-66
2023/01/23 04:18:08;;;;;;;15.02;9.77;;;;;;;1.48;51.89;103027.25;5027073;28;20040;-66
2023/01/23 04:20:36;;;;;;;16.02;10.57;;;;;;;1.48;51.88;103024.56;5066299;28;20048;-66
2023/01/23 04:23:05;;;;;;;15.55;10.15;;;;;;;1.52;51.85;103018.19;5067645;28;20028;-69
2023/01/23 04:25:33;;;;;;;16.13;9.63;;;;;;;1.52;51.91;103009.19;5045507;28;20072;-69
2023/01/23 04:28:03;;;;;;;14.82;9.05;;;;;;;1.55;51.80;103011.84;5042145;28;20037;-69
2023/01/23 04:30:32;;;;;;;13.52;9.05;;;;;;;1.56;51.72;103009.13;5022532;28;20148;-69
2023/01/23 04:33:07;;;;;;;16.05;10.15;;;;;;;1.57;51.83;103015.44;5021533;28;20046;-70
2023/01/23 04:35:36;;;;;;;15.13;9.13;;;;;;;1.60;51.67;103018.94;5043017;28;20154;-69
2023/01/23 04:38:06;;;;;;;16.33;10.27;;;;;;;1.57;52.07;103019.03;5046171;28;20033;-69
2023/01/23 04:40:35;;;;;;;16.88;10.30;;;;;;;1.59;51.59;103011.75;5040044;28;20127;-69
2023/01/23 04:43:03;;;;;;;17.70;10.77;;;;;;;1.56;51.78;103008.25;5042216;28;20092;-69
2023/01/23 04:45:39;;;;;;;14.63;9.73;;;;;;;1.60;51.60;103010.84;5041616;28;20056;-69
2023/01/23 04:48:27;;;;;;;14.73;8.63;;;;;;;1.63;51.57;103012.63;5031849;28;20726;-69
2023/01/23 04:50:55;;;;;;;16.48;9.32;;;;;;;1.64;51.80;103009.91;5067597;28;20047;-69
2023/01/23 04:53:24;;;;;;;15.48;9.38;;;;;;;1.69;51.71;103016.09;5044589;28;20095;-69
2023/01/23 04:55:59;;;;;;;14.77;8.32;;;;;;;1.70;51.67;103006.19;5033410;28;20037;-69
2023/01/23 04:58:27;;;;;;;14.85;8.60;;;;;;;1.73;51.60;103011.56;5037502;28;20053;-69
2023/01/23 05:01:02;;;;;;;15.43;9.18;;;;;;;1.76;51.58;103012.38;5019421;28;20116;-69
2023/01/23 05:03:33;;;;;;;15.13;8.68;;;;;;;1.77;51.54;103008.78;5044028;28;20037;-69
2023/01/23 05:06:01;;;;;;;13.77;8.27;;;;;;;1.80;51.46;103010.53;5040690;28;20469;-69
2023/01/23 05:08:30;;;;;;;13.25;8.43;;;;;;;1.84;51.39;103012.25;5041213;28;20460;-69
2023/01/23 05:11:14;;;;;;;13.50;8.70;;;;;;;1.83;51.62;103007.81;5019834;28;20111;-69
2023/01/23 05:13:43;;;;;;;13.75;8.43;;;;;;;1.84;51.49;103006.84;5044184;28;20045;-69
2023/01/23 05:16:12;;;;;;;11.75;7.57;;;;;;;1.86;51.42;103019.41;5039180;28;20043;-69
2023/01/23 05:18:59;;;;;;;14.70;9.15;;;;;;;1.83;51.48;103018.59;5059972;28;20711;-69
2023/01/23 05:21:28;;;;;;;14.52;9.20;;;;;;;1.85;51.33;103028.44;5048920;28;20405;-69
2023/01/23 05:23:57;;;;;;;13.55;9.23;;;;;;;1.81;51.52;103020.44;5045023;28;20068;-69
2023/01/23 05:26:25;;;;;;;14.85;9.15;;;;;;;1.83;51.29;103018.59;5053968;28;20041;-69
2023/01/23 05:28:54;;;;;;;17.25;9.93;;;;;;;1.81;51.37;103020.44;5035078;28;20048;-69
2023/01/23 05:31:22;;;;;;;14.45;8.57;;;;;;;1.83;51.23;103021.31;5063967;28;20086;-69
2023/01/23 05:34:10;;;;;;;12.73;8.32;;;;;;;1.84;51.35;103023.06;5063659;28;20490;-69
2023/01/23 05:36:40;;;;;;;12.05;7.93;;;;;;;1.83;51.10;103024.91;5043830;28;20544;-69
2023/01/23 05:39:09;;;;;;;12.85;7.90;;;;;;;1.82;51.18;103028.50;5064662;28;20139;-69
2023/01/23 05:41:37;;;;;;;11.88;7.75;;;;;;;1.82;51.00;103030.31;5064265;28;20051;-69
2023/01/23 05:44:30;;;;;;;14.48;8.95;;;;;;;1.76;51.51;103035.78;5034626;28;20131;-69
2023/01/23 05:47:19;;;;;;;13.48;9.00;;;;;;;1.75;51.26;103040.28;5045435;28;20041;-69
2023/01/23 05:49:48;;;;;;;13.02;8.02;;;;;;;1.76;51.31;103039.38;5047017;28;20055;-69
2023/01/23 05:52:15;;;;;;;13.07;9.27;;;;;;;1.75;51.26;103034.88;5043786;28;20529;-69
2023/01/23 05:54:45;;;;;;;13.35;8.63;;;;;;;1.76;51.37;103030.38;5047042;28;20056;-69
2023/01/23 05:57:13;;;;;;;13.55;8.90;;;;;;;1.72;51.30;103034.06;5047364;28;20471;-70
2023/01/23 05:59:44;;;;;;;14.00;8.65;;;;;;;1.72;51.41;103036.78;5060836;28;20044;-69
2023/01/23 06:02:30;;;;;;;14.18;8.77;;;;;;;1.68;51.38;103038.63;5060721;28;20144;-69
2023/01/23 06:05:27;;;;;;;15.18;8.55;;;;;;;1.69;51.38;103039.50;5042266;28;20048;-70
2023/01/23 06:08:02;;;;;;;16.38;9.40;;;;;;;1.67;51.41;103033.25;5045563;28;20041;-69
2023/01/23 06:10:31;;;;;;;14.73;9.13;;;;;;;1.68;51.34;103032.31;5043354;28;20044;-69
2023/01/23 06:12:59;;;;;;;14.27;8.65;;;;;;;1.68;51.35;103044.00;5052780;28;20036;-69
2023/01/23 06:15:27;;;;;;;13.35;7.70;;;;;;;1.69;51.30;103048.50;5046781;28;20041;-69
2023/01/23 06:17:56;;;;;;;13.05;7.50;;;;;;;1.70;51.44;103057.50;5047670;28;20537;-69
2023/01/23 06:20:25;;;;;;;11.75;7.28;;;;;;;1.71;51.26;103054.78;5054775;28;20235;-71
2023/01/23 06:22:53;;;;;;;11.82;7.50;;;;;;;1.74;51.39;103061.94;5050651;28;20051;-68
2023/01/23 06:25:21;;;;;;;11.70;7.72;;;;;;;1.74;51.39;103060.13;5052653;28;20063;-68
2023/01/23 06:27:53;;;;;;;14.50;7.78;;;;;;;1.77;51.08;103067.28;5044865;28;20485;-69
2023/01/23 06:30:23;;;;;;;11.90;7.68;;;;;;;1.78;51.11;103069.06;5039820;28;20040;-68
2023/01/23 06:32:51;;;;;;;13.07;8.13;;;;;;;1.79;51.15;103078.94;5048164;28;20501;-68
2023/01/23 06:35:26;;;;;;;14.13;8.25;;;;;;;1.80;51.15;103078.94;5048650;28;20068;-68
2023/01/23 06:37:55;;;;;;;12.00;7.70;;;;;;;1.80;51.28;103087.03;5044380;28;20049;-68
2023/01/23 06:40:23;;;;;;;13.77;8.15;;;;;;;1.80;51.17;103084.31;5063796;28;20406;-68
2023/01/23 06:43:06;;;;;;;12.75;7.97;;;;;;;1.82;51.11;103093.31;5048574;28;20529;-68
2023/01/23 06:45:33;;;;;;;13.38;8.25;;;;;;;1.83;51.13;103091.50;5066142;28;20571;-68
2023/01/23 06:48:01;;;;;;;12.88;7.70;;;;;;;1.82;50.95;103090.59;5047564;28;20369;-68
2023/01/23 06:50:29;;;;;;;12.77;8.23;;;;;;;1.83;50.93;103092.41;5044157;28;20041;-68
2023/01/23 06:52:57;;;;;;;13.48;8.55;;;;;;;1.81;51.02;103096.91;5062854;28;20446;-69
2023/01/23 06:55:25;;;;;;;13.73;8.00;;;;;;;1.84;51.06;103101.34;5046908;28;20045;-69
2023/01/23 06:57:53;;;;;;;12.02;7.68;;;;;;;1.83;50.98;103103.19;5047412;28;20040;-70
2023/01/23 07:00:23;;;;;;;13.98;7.80;;;;;;;1.84;51.04;103102.25;5046719;28;20581;-74
2023/01/23 07:02:57;;;;;;;13.05;7.80;;;;;;;1.82;51.08;103112.19;5064779;28;20146;-69
2023/01/23 07:05:26;;;;;;;11.85;6.70;;;;;;;1.81;50.95;103113.13;5035582;28;20045;-68
2023/01/23 07:07:54;;;;;;;12.77;7.30;;;;;;;1.83;51.18;103108.59;5063944;28;20041;-69
2023/01/23 07:10:22;;;;;;;12.07;7.38;;;;;;;1.84;51.17;103117.56;5049748;28;20090;-68
2023/01/23 07:12:51;;;;;;;13.32;8.23;;;;;;;1.83;51.17;103105.00;5041330;28;20781;-69
2023/01/23 07:15:19;;;;;;;15.00;9.10;;;;;;;1.83;51.20;103114.00;5046124;28;20409;-69
2023/01/23 07:17:49;;;;;;;12.90;7.90;;;;;;;1.85;51.08;103120.22;5044841;28;20082;-70
2023/01/23 07:20:17;;;;;;;13.75;8.30;;;;;;;1.83;51.16;103126.59;5033191;28;20140;-70
2023/01/23 07:22:50;;;;;;;14.20;8.05;;;;;;;1.81;51.28;103134.72;5045957;28;20131;-69
2023/01/23 07:25:18;;;;;;;13.55;8.13;;;;;;;1.83;51.16;103141.00;5059445;28;20052;-70
2023/01/23 07:27:45;;;;;;;13.52;8.25;;;;;;;1.84;51.31;103142.75;5063317;28;20044;-70
2023/01/23 07:30:14;;;;;;;14.52;7.93;;;;;;;1.85;51.24;103139.13;5058594;28;20525;-69
2023/01/23 07:32:42;;;;;;;13.95;7.97;;;;;;;1.86;51.21;103146.31;5055615;28;20041;-68
2023/01/23 07:35:11;;;;;;;15.35;9.30;;;;;;;1.85;51.39;103139.13;5064395;28;20041;-68
2023/01/23 07:37:39;;;;;;;14.38;8.25;;;;;;;1.86;51.53;103149.03;5064377;28;20082;-70
2023/01/23 07:40:07;;;;;;;13.05;8.23;;;;;;;1.88;51.33;103146.31;5057340;28;20498;-68
2023/01/23 07:42:35;;;;;;;14.80;8.65;;;;;;;1.86;51.45;103149.03;5058852;28;20040;-68
2023/01/23 07:45:03;;;;;;;14.68;8.50;;;;;;;1.89;51.28;103148.09;5063262;28;20123;-69
2023/01/23 07:47:31;;;;;;;13.10;8.57;;;;;;;1.90;51.35;103155.28;5064146;28;20036;-69
2023/01/23 07:49:59;;;;;;;14.23;9.00;;;;;;;1.88;51.46;103151.72;5066425;28;20045;-69
2023/01/23 07:52:28;;;;;;;16.05;10.10;;;;;;;1.83;51.71;103153.59;5066329;28;20040;-69
2023/01/23 07:54:56;;;;;;;15.20;9.80;;;;;;;1.85;51.47;103157.13;5067486;28;20409;-70
2023/01/23 07:57:24;;;;;;;17.38;10.52;;;;;;;1.81;51.68;103161.72;5062447;28;20587;-69
2023/01/23 07:59:52;;;;;;;16.73;10.00;;;;;;;1.81;51.66;103161.72;5068766;28;20517;-68
2023/01/23 08:02:20;;;;;;;17.80;10.05;;;;;;;1.80;51.75;103173.44;5065755;28;20040;-69
2023/01/23 08:04:48;;;;;;;14.65;8.52;;;;;;;1.84;51.70;103175.16;5067494;28;20048;-69
2023/01/23 08:07:16;;;;;;;14.70;8.77;;;;;;;1.85;51.70;103166.13;5048003;28;20052;-68
2023/01/23 08:09:45;;;;;;;14.00;8.38;;;;;;;1.86;51.79;103176.03;5060227;28;20058;-67
2023/01/23 08:12:13;;;;;;;14.18;9.23;;;;;;;1.81;51.89;103174.31;5063429;28;20056;-69
2023/01/23 08:14:41;;;;;;;17.15;10.75;;;;;;;1.78;52.07;103180.66;5062714;28;20075;-68
2023/01/23 08:17:09;;;;;;;17.63;9.90;;;;;;;1.79;52.12;103177.03;5065140;28;20036;-69
2023/01/23 08:19:37;;;;;;;15.82;9.52;;;;;;;1.81;51.97;103171.63;5063779;28;20036;-68
2023/01/23 08:22:05;;;;;;;17.40;9.45;;;;;;;1.79;52.00;103162.63;5068364;28;20440;-68
2023/01/23 08:24:33;;;;;;;15.65;9.20;;;;;;;1.81;51.96;103164.41;5063388;28;20746;-68
2023/01/23 08:27:02;;;;;;;13.18;8.13;;;;;;;1.86;52.00;103170.63;5058226;28;20071;-69
2023/01/23 08:29:31;;;;;;;15.43;8.95;;;;;;;1.86;51.89;103167.03;5066941;28;20043;-70
2023/01/23 08:31:59;;;;;;;18.88;10.50;;;;;;;1.84;51.81;103160.75;5067008;28;20401;-70
2023/01/23 08:34:27;;;;;;;12.77;8.10;;;;;;;1.89;51.93;103161.59;5064525;28;20115;-73
2023/01/23 08:36:55;;;;;;;16.35;10.15;;;;;;;1.86;52.10;103165.22;5062534;28;20036;-70
2023/01/23 08:39:24;;;;;;;16.15;9.57;;;;;;;1.87;52.23;103172.41;5058231;28;20390;-69
2023/01/23 08:41:52;;;;;;;17.40;10.10;;;;;;;1.89;52.07;103169.69;5058403;28;20037;-70
2023/01/23 08:44:21;;;;;;;19.35;10.77;;;;;;;1.88;52.28;103168.81;5067208;28;20551;-70
2023/01/23 08:46:49;;;;;;;16.63;9.60;;;;;;;1.87;52.23;103175.13;5068800;28;20052;-70
2023/01/23 08:49:18;;;;;;;17.48;10.45;;;;;;;1.87;52.32;103180.50;5065961;28;20048;-70
2023/01/23 08:51:46;;;;;;;17.75;9.07;;;;;;;1.90;52.24;103181.41;5067685;28;20047;-70
2023/01/23 08:54:14;;;;;;;18.38;10.95;;;;;;;1.88;52.46;103192.22;5066832;28;20098;-70
2023/01/23 08:56:42;;;;;;;17.15;10.20;;;;;;;1.85;52.62;103190.44;5062348;28;20052;-71
2023/01/23 08:59:10;;;;;;;18.55;10.27;;;;;;;1.90;52.40;103193.09;5060170;28;20060;-70
2023/01/23 09:01:39;;;;;;;19.17;9.40;;;;;;;1.94;52.39;103188.53;5069208;28;20036;-70
2023/01/23 09:04:07;;;;;;;17.40;8.98;;;;;;;1.95;52.34;103193.00;5052839;28;20044;-71
2023/01/23 09:06:35;;;;;;;19.02;10.13;;;;;;;1.94;52.35;103186.72;5058438;28;20041;-70
2023/01/23 09:09:03;;;;;;;18.60;9.93;;;;;;;1.95;52.38;103185.81;5064236;28;20063;-70
2023/01/23 09:11:31;;;;;;;19.52;10.13;;;;;;;1.98;52.42;103187.56;5058890;28;20044;-70
2023/01/23 09:13:59;;;;;;;19.90;11.00;;;;;;;1.98;52.45;103191.16;5065997;28;20369;-70
2023/01/23 09:16:26;;;;;;;17.35;9.68;;;;;;;2.03;52.24;103183.00;5058922;28;20049;-70
2023/01/23 09:18:56;;;;;;;19.67;11.00;;;;;;;1.98;52.63;103196.56;5063309;28;20086;-71
2023/01/23 09:21:24;;;;;;;18.42;10.57;;;;;;;2.01;52.31;103198.31;5060839;28;20548;-71
2023/01/23 09:23:52;;;;;;;21.10;10.73;;;;;;;2.02;52.50;103198.28;5065108;28;20105;-70
2023/01/23 09:26:19;;;;;;;17.52;10.68;;;;;;;2.01;52.51;103199.22;5059509;28;20047;-70
2023/01/23 09:28:47;;;;;;;18.45;10.20;;;;;;;2.04;52.41;103191.06;5057270;28;20413;-70
2023/01/23 09:31:15;;;;;;;18.25;10.35;;;;;;;2.01;52.44;103193.81;5039681;28;20040;-71
2023/01/23 09:33:43;;;;;;;18.48;10.63;;;;;;;2.05;52.49;103200.06;5055334;28;20439;-70
2023/01/23 09:36:12;;;;;;;18.38;9.45;;;;;;;2.09;52.35;103191.00;5071249;28;20068;-70
2023/01/23 09:38:40;;;;;;;15.90;9.38;;;;;;;2.11;52.25;103194.56;5063954;28;20094;-70
2023/01/23 09:41:11;;;;;;;17.38;9.38;;;;;;;2.14;52.32;103197.22;5064345;28;20423;-71
2023/01/23 09:43:45;;;;;;;18.60;10.13;;;;;;;2.14;52.25;103195.44;5051014;28;20128;-70
2023/01/23 09:46:19;;;;;;;17.33;10.63;;;;;;;2.15;52.42;103197.22;5061521;28;20060;-70
2023/01/23 09:48:50;;;;;;;20.60;11.40;;;;;;;2.15;52.33;103207.13;5063088;28;20059;-70
2023/01/23 09:51:27;;;;;;;20.02;11.65;;;;;;;2.15;52.42;103208.03;5067051;28;20098;-70
2023/01/23 09:54:00;;;;;;;18.67;10.85;;;;;;;2.15;52.27;103205.31;5061368;28;20064;-70
2023/01/23 09:56:31;;;;;;;19.20;10.38;;;;;;;2.18;52.23;103209.75;5047045;28;20128;-70
2023/01/23 09:59:07;;;;;;;16.88;10.38;;;;;;;2.21;52.17;103209.72;5048382;28;20189;-70
2023/01/23 10:01:36;;;;;;;17.90;11.20;;;;;;;2.19;52.27;103206.16;5060406;28;20045;-70
2023/01/23 10:04:05;;;;;;;18.48;10.85;;;;;;;2.20;52.43;103213.34;5059120;28;20040;-71
2023/01/23 10:06:55;;;;;;;18.50;10.38;;;;;;;2.24;51.92;103212.41;5046645;28;20060;-70
2023/01/23 10:09:37;;;;;;;19.88;11.60;;;;;;;2.21;52.15;103217.84;5044031;28;20049;-70
2023/01/23 10:12:13;;;;;;;18.33;10.75;;;;;;;2.23;52.12;103207.91;5047135;28;20102;-70
2023/01/23 10:14:59;;;;;;;17.67;10.48;;;;;;;2.27;51.85;103220.44;5035684;28;20413;-71
2023/01/23 10:17:33;;;;;;;16.92;10.02;;;;;;;2.28;52.01;103215.94;5038648;28;20682;-70
2023/01/23 10:20:24;;;;;;;19.38;10.80;;;;;;;2.28;51.70;103214.13;5046265;28;20144;-71
2023/01/23 10:23:06;;;;;;;16.23;9.63;;;;;;;2.31;51.71;103214.09;5035103;28;20082;-70
2023/01/23 10:25:39;;;;;;;18.27;10.20;;;;;;;2.29;51.97;103215.91;5041353;28;20048;-70
2023/01/23 10:28:25;;;;;;;21.27;11.48;;;;;;;2.29;51.72;103215.91;5045586;28;20493;-70
2023/01/23 10:30:58;;;;;;;19.23;11.50;;;;;;;2.30;51.64;103215.00;5035276;28;20135;-70
2023/01/23 10:33:29;;;;;;;;;;;;;;;2.10;51.97;103217.97;5038949;28;20114;-70
2023/01/23 10:36:03;;;;;;;16.13;9.13;;;;;;;2.33;51.74;103214.94;5047671;28;19952;-70
2023/01/23 10:38:37;;;;;;;16.50;9.63;;;;;;;2.38;51.51;103214.88;5031883;28;20041;-70
2023/01/23 10:41:18;;;;;;;15.40;8.93;;;;;;;2.41;51.51;103213.00;5043268;28;20033;-70
2023/01/23 10:43:51;;;;;;;15.20;9.10;;;;;;;2.44;51.52;103220.16;5027281;28;20038;-70
2023/01/23 10:46:21;;;;;;;17.17;10.40;;;;;;;2.40;51.31;103210.34;5039573;28;20049;-70
2023/01/23 10:48:50;;;;;;;16.23;10.23;;;;;;;2.43;51.34;103212.97;5035543;28;20045;-70
2023/01/23 10:51:31;;;;;;;19.17;9.88;;;;;;;2.43;50.95;103223.78;5042392;28;20132;-70
2023/01/23 10:54:11;;;;;;;17.95;9.70;;;;;;;2.46;50.86;103221.94;5045790;28;20068;-70
2023/01/23 10:56:59;;;;;;;14.15;8.20;;;;;;;2.46;51.32;103216.53;5046657;28;20382;-71
2023/01/23 10:59:31;;;;;;;14.25;8.30;;;;;;;2.52;51.03;103224.53;5059648;28;20043;-71
2023/01/23 11:02:18;;;;;;;15.33;8.30;;;;;;;2.53;50.64;103217.31;5063500;28;20052;-71
2023/01/23 11:04:50;;;;;;;15.40;8.98;;;;;;;2.54;51.17;103220.00;5045364;28;20291;-71
2023/01/23 11:07:21;;;;;;;14.27;8.40;;;;;;;2.57;50.83;103219.06;5048591;28;20049;-70
2023/01/23 11:09:54;;;;;;;14.00;8.60;;;;;;;2.61;50.74;103220.78;5045873;28;20479;-70
2023/01/23 11:12:24;;;;;;;14.32;8.40;;;;;;;2.60;50.86;103219.00;5045602;28;20064;-70
2023/01/23 11:15:11;;;;;;;13.95;8.68;;;;;;;2.62;50.88;103214.47;5045419;28;20512;-70
2023/01/23 11:17:39;;;;;;;16.00;9.88;;;;;;;2.63;50.87;103213.56;5032049;28;20402;-70
2023/01/23 11:20:12;;;;;;;16.98;8.88;;;;;;;2.66;50.59;103210.78;5044353;28;20049;-71
2023/01/23 11:22:41;;;;;;;14.57;9.10;;;;;;;2.65;50.72;103206.31;5045644;28;20053;-70
2023/01/23 11:25:29;;;;;;;15.63;9.15;;;;;;;2.66;50.40;103210.78;5061693;28;20466;-70
2023/01/23 11:28:00;;;;;;;16.42;10.35;;;;;;;2.59;51.04;103204.59;5054769;28;20045;-70
2023/01/23 11:30:44;;;;;;;14.63;9.77;;;;;;;2.66;50.36;103202.66;5041394;28;20037;-70
2023/01/23 11:33:17;;;;;;;15.55;9.43;;;;;;;2.67;51.01;103203.56;5038448;28;20041;-70
2023/01/23 11:35:54;;;;;;;14.43;9.05;;;;;;;2.67;50.58;103193.63;5031630;28;20061;-70
2023/01/23 11:38:26;;;;;;;14.75;9.65;;;;;;;2.68;50.71;103192.72;5036370;28;20099;-69
2023/01/23 11:40:59;;;;;;;17.42;10.70;;;;;;;2.66;50.91;103186.44;5041548;28;20044;-70
2023/01/23 11:43:27;;;;;;;15.43;9.23;;;;;;;2.69;51.00;103182.81;5044536;28;20082;-70